Time;durP1;ratioP1;P1;durP2;ratioP2;P2;SDS_P1;SDS_P2;PMS_P1;PMS_P2;Temp;Humidity;BMP_temperature;BMP_pressure;BME280_temperature;BME280_humidity;BME280_pressure;Samples;Min_cycle;Max_cycle;Signal;HPM_P1;HPM_P2
2023/11/12 00:00:52;;;;;;;8.03;5.43;;;4.40;99.90;;;;;;4887476;29;20424;-79
2023/11/12 00:03:22;;;;;;;7.07;5.63;;;4.50;99.90;;;;;;4868640;29;20180;-81
2023/11/12 00:05:51;;;;;;;5.90;5.00;;;4.50;99.90;;;;;;4920164;23;20492;-81
2023/11/12 00:08:18;;;;;;;17.63;8.60;;;4.30;99.90;;;;;;4875798;29;20444;-79
2023/11/12 00:10:53;;;;;;;15.37;7.50;;;4.20;99.90;;;;;;4863814;29;20496;-80
2023/11/12 00:13:20;;;;;;;11.60;7.30;;;4.40;99.90;;;;;;4899745;29;20513;-79
2023/11/12 00:15:49;;;;;;;7.80;6.70;;;4.20;99.90;;;;;;4877864;29;20521;-79
2023/11/12 00:18:17;;;;;;;9.50;7.20;;;4.20;99.90;;;;;;4850880;29;20478;-79
2023/11/12 00:21:20;;;;;;;11.50;6.43;;;4.40;99.90;;;;;;4835465;29;20443;-81
2023/11/12 00:23:51;;;;;;;13.70;7.40;;;4.30;99.90;;;;;;4833877;29;20426;-79
2023/11/12 00:26:21;;;;;;;11.67;7.00;;;4.30;99.90;;;;;;4820701;29;20793;-79
2023/11/12 00:28:52;;;;;;;13.20;7.70;;;4.30;99.90;;;;;;4827883;29;20427;-80
2023/11/12 00:31:23;;;;;;;12.43;7.80;;;4.20;99.90;;;;;;4838949;29;20473;-79
2023/11/12 00:33:49;;;;;;;18.17;9.47;;;4.10;99.90;;;;;;4819200;29;20473;-79
2023/11/12 00:36:15;;;;;;;15.23;8.40;;;4.20;99.90;;;;;;4825370;29;20466;-79
2023/11/12 00:38:41;;;;;;;18.80;11.20;;;4.20;99.90;;;;;;4833241;29;20181;-79
2023/11/12 00:41:08;;;;;;;13.47;9.03;;;4.30;99.90;;;;;;4839719;29;20434;-79
2023/11/12 00:43:34;;;;;;;19.30;12.00;;;4.20;99.90;;;;;;4863943;29;20464;-79
2023/11/12 00:46:01;;;;;;;14.60;10.60;;;4.10;99.90;;;;;;4822386;29;20469;-78
2023/11/12 00:48:27;;;;;;;22.50;13.27;;;4.20;99.90;;;;;;4848998;29;20421;-79
2023/11/12 00:50:53;;;;;;;17.97;10.90;;;4.10;99.90;;;;;;4827756;29;20622;-78
2023/11/12 00:53:19;;;;;;;19.40;10.13;;;4.10;99.90;;;;;;4816703;29;20484;-78
2023/11/12 00:55:46;;;;;;;20.13;9.20;;;4.20;99.90;;;;;;4821932;29;20594;-79
2023/11/12 00:58:12;;;;;;;16.50;11.53;;;4.20;99.90;;;;;;4838800;29;20449;-80
2023/11/12 01:00:47;;;;;;;13.20;9.13;;;4.10;99.90;;;;;;4843101;29;20444;-80
2023/11/12 01:03:13;;;;;;;16.90;10.17;;;4.20;99.90;;;;;;4821348;29;20498;-79
2023/11/12 01:05:40;;;;;;;14.10;10.87;;;4.00;99.90;;;;;;4847442;29;20489;-79
2023/11/12 01:08:06;;;;;;;14.80;9.77;;;4.10;99.90;;;;;;4847225;29;20447;-77
2023/11/12 01:10:32;;;;;;;14.43;9.90;;;4.00;99.90;;;;;;4871082;29;20873;-78
2023/11/12 01:12:59;;;;;;;14.90;9.87;;;4.10;99.90;;;;;;4867435;29;20436;-78
2023/11/12 01:15:27;;;;;;;13.37;8.23;;;4.20;99.90;;;;;;4866221;29;20205;-79
2023/11/12 01:17:53;;;;;;;10.03;7.50;;;4.10;99.90;;;;;;4847862;29;20570;-79
2023/11/12 01:20:19;;;;;;;18.60;10.10;;;4.10;99.90;;;;;;4866442;29;20421;-77
2023/11/12 01:22:46;;;;;;;14.50;9.90;;;4.00;99.90;;;;;;4882901;29;20398;-77
2023/11/12 01:25:12;;;;;;;20.33;10.53;;;4.30;99.90;;;;;;4845980;29;20453;-78
2023/11/12 01:27:38;;;;;;;12.30;9.30;;;4.40;99.90;;;;;;4852417;29;20421;-80
2023/11/12 01:30:05;;;;;;;11.63;8.00;;;4.50;99.90;;;;;;4850974;29;20492;-79
2023/11/12 01:32:32;;;;;;;8.97;6.83;;;4.40;99.90;;;;;;4852708;29;20437;-78
2023/11/12 01:34:58;;;;;;;10.83;8.00;;;4.50;99.90;;;;;;4873148;29;20457;-79
2023/11/12 01:37:24;;;;;;;10.97;7.87;;;4.60;99.90;;;;;;4858544;29;20440;-78
2023/11/12 01:39:50;;;;;;;11.23;8.03;;;4.50;99.90;;;;;;4852362;29;20264;-77
2023/11/12 01:42:16;;;;;;;9.63;6.80;;;4.60;99.90;;;;;;4859948;29;20500;-78
2023/11/12 01:44:44;;;;;;;8.10;6.50;;;4.60;99.90;;;;;;4874491;29;20222;-77
2023/11/12 01:47:12;;;;;;;10.33;6.50;;;4.50;99.90;;;;;;4847207;29;20230;-78
2023/11/12 01:49:39;;;;;;;12.60;8.60;;;4.50;99.90;;;;;;4851053;29;20422;-79
2023/11/12 01:52:07;;;;;;;10.80;6.70;;;4.50;99.90;;;;;;4835324;29;20709;-79
2023/11/12 01:54:36;;;;;;;12.83;9.17;;;4.50;99.90;;;;;;4835198;29;20477;-80
2023/11/12 01:57:03;;;;;;;14.97;9.60;;;4.60;99.90;;;;;;4831543;29;20441;-78
2023/11/12 01:59:33;;;;;;;10.57;7.73;;;4.70;99.90;;;;;;4849565;29;20421;-78
2023/11/12 02:01:59;;;;;;;9.17;7.30;;;4.50;99.90;;;;;;4849897;29;20823;-80
2023/11/12 02:04:26;;;;;;;10.83;7.50;;;4.50;99.90;;;;;;4840532;29;20482;-77
2023/11/12 02:06:54;;;;;;;12.67;8.37;;;4.30;99.90;;;;;;4849651;29;20243;-78
2023/11/12 02:09:22;;;;;;;11.63;7.50;;;4.40;99.90;;;;;;4836340;29;20441;-78
2023/11/12 02:11:50;;;;;;;13.60;8.43;;;4.40;99.90;;;;;;4833981;29;20469;-77
2023/11/12 02:14:20;;;;;;;9.77;7.97;;;4.30;99.90;;;;;;4833494;29;20517;-76
2023/11/12 02:16:49;;;;;;;11.70;7.57;;;4.20;99.90;;;;;;4827695;29;20440;-77
2023/11/12 02:19:30;;;;;;;12.90;8.93;;;4.30;99.90;;;;;;4830338;29;20422;-77
2023/11/12 02:21:57;;;;;;;13.87;8.53;;;4.10;99.90;;;;;;4846897;29;20466;-78
2023/11/12 02:24:24;;;;;;;9.13;7.17;;;4.10;99.90;;;;;;4833518;29;20418;-77
2023/11/12 02:26:50;;;;;;;12.07;8.93;;;4.00;99.90;;;;;;4846721;29;20421;-77
2023/11/12 02:29:16;;;;;;;10.47;7.00;;;4.00;99.90;;;;;;4838542;29;20446;-77
2023/11/12 02:31:44;;;;;;;11.30;7.80;;;4.10;99.90;;;;;;4831106;29;20466;-77
2023/11/12 02:34:10;;;;;;;11.93;7.37;;;4.20;99.90;;;;;;4846702;29;20181;-78
2023/11/12 02:36:37;;;;;;;8.47;6.30;;;4.10;99.90;;;;;;4862891;29;20426;-76
2023/11/12 02:39:03;;;;;;;9.23;6.80;;;4.20;99.90;;;;;;4854931;29;20475;-77
2023/11/12 02:41:29;;;;;;;8.70;6.80;;;4.20;99.90;;;;;;4890720;29;20890;-77
2023/11/12 02:43:56;;;;;;;9.80;8.77;;;4.20;99.90;;;;;;4866613;29;20240;-78
2023/11/12 02:46:23;;;;;;;9.90;7.83;;;4.30;99.90;;;;;;4867848;29;20465;-77
2023/11/12 02:49:23;;;;;;;9.77;8.67;;;4.40;99.90;;;;;;4852553;29;20425;-77
2023/11/12 02:51:49;;;;;;;9.90;7.30;;;4.50;99.90;;;;;;4882081;29;20468;-77
2023/11/12 02:54:16;;;;;;;7.27;5.50;;;4.50;99.90;;;;;;4877086;29;20428;-77
2023/11/12 02:56:42;;;;;;;8.90;6.27;;;4.50;99.90;;;;;;4852821;29;20180;-77
2023/11/12 02:59:07;;;;;;;12.33;7.70;;;4.30;99.90;;;;;;4867482;29;20421;-77
2023/11/12 03:01:34;;;;;;;7.20;5.93;;;4.50;99.90;;;;;;4885776;29;20176;-77
2023/11/12 03:04:00;;;;;;;6.93;6.10;;;4.40;99.90;;;;;;4885395;29;20492;-77
2023/11/12 03:06:26;;;;;;;8.20;6.00;;;4.50;99.90;;;;;;4886023;29;20319;-78
2023/11/12 03:08:54;;;;;;;7.77;6.10;;;4.40;99.90;;;;;;4874264;29;20176;-77
2023/11/12 03:11:21;;;;;;;8.13;6.17;;;4.50;99.90;;;;;;4860247;29;20456;-78
2023/11/12 03:13:47;;;;;;;7.03;6.00;;;4.70;99.90;;;;;;4868744;29;20440;-77
2023/11/12 03:16:14;;;;;;;6.70;4.23;;;4.70;99.90;;;;;;4862444;29;20224;-77
2023/11/12 03:18:40;;;;;;;7.03;5.60;;;4.80;99.90;;;;;;4885074;29;20420;-78
2023/11/12 03:21:09;;;;;;;5.57;4.87;;;4.70;99.90;;;;;;4896920;29;20429;-76
2023/11/12 03:23:35;;;;;;;5.40;4.70;;;5.00;99.90;;;;;;4858103;29;20523;-76
2023/11/12 03:26:01;;;;;;;7.47;5.27;;;4.90;99.90;;;;;;4859913;29;20457;-77
2023/11/12 03:28:27;;;;;;;5.80;4.50;;;5.00;99.90;;;;;;4883548;29;20444;-76
2023/11/12 03:30:52;;;;;;;7.30;4.57;;;5.00;99.90;;;;;;4864528;29;20253;-76
2023/11/12 03:33:18;;;;;;;7.40;5.70;;;5.20;99.90;;;;;;4881282;29;20173;-75
2023/11/12 03:35:45;;;;;;;5.20;4.70;;;5.20;99.90;;;;;;4850246;29;20200;-76
2023/11/12 03:38:11;;;;;;;8.30;4.47;;;5.30;99.90;;;;;;4862733;29;20414;-76
2023/11/12 03:40:37;;;;;;;7.00;4.83;;;5.30;99.90;;;;;;4880965;29;20425;-75
2023/11/12 03:43:02;;;;;;;5.40;4.90;;;5.20;99.90;;;;;;4867276;29;20197;-76
2023/11/12 03:45:28;;;;;;;5.70;4.20;;;5.30;99.90;;;;;;4884985;29;20253;-77
2023/11/12 03:47:54;;;;;;;5.40;4.80;;;5.40;99.90;;;;;;4873921;29;20261;-76
2023/11/12 03:50:22;;;;;;;6.20;4.47;;;5.10;99.90;;;;;;4867688;29;20465;-76
2023/11/12 03:52:48;;;;;;;5.47;4.27;;;5.20;99.90;;;;;;4853948;29;20438;-77
2023/11/12 03:55:14;;;;;;;4.80;3.87;;;5.00;99.90;;;;;;4866400;29;20219;-76
2023/11/12 03:57:40;;;;;;;4.80;3.53;;;5.10;99.90;;;;;;4897566;29;20435;-78
2023/11/12 04:00:07;;;;;;;4.63;3.80;;;4.80;99.90;;;;;;4881920;29;20206;-76
2023/11/12 04:02:40;;;;;;;4.83;4.13;;;4.90;99.90;;;;;;4889194;29;20232;-80
2023/11/12 04:05:06;;;;;;;5.47;3.60;;;4.80;99.90;;;;;;4871265;29;20491;-75
2023/11/12 04:07:31;;;;;;;4.83;3.57;;;4.80;99.90;;;;;;4857864;29;20628;-77
2023/11/12 04:09:57;;;;;;;5.63;3.93;;;4.70;99.90;;;;;;4880503;29;20453;-78
2023/11/12 04:12:24;;;;;;;5.73;3.63;;;5.00;99.90;;;;;;4869855;29;20228;-76
2023/11/12 04:14:50;;;;;;;4.40;3.30;;;4.90;99.90;;;;;;4871516;29;20445;-76
2023/11/12 04:17:17;;;;;;;5.10;3.40;;;5.10;99.90;;;;;;4879844;29;20446;-77
2023/11/12 04:19:43;;;;;;;4.00;3.67;;;5.10;99.90;;;;;;4878181;29;20249;-77
2023/11/12 04:22:09;;;;;;;4.17;3.13;;;5.20;99.90;;;;;;4871793;29;20432;-75
2023/11/12 04:24:35;;;;;;;4.07;3.10;;;5.30;99.90;;;;;;4861141;29;20465;-77
2023/11/12 04:27:00;;;;;;;6.80;4.07;;;5.40;99.90;;;;;;4863398;29;20192;-77
2023/11/12 04:29:26;;;;;;;6.10;4.20;;;5.40;99.90;;;;;;4889456;29;20536;-75
2023/11/12 04:31:52;;;;;;;4.67;3.50;;;5.30;99.90;;;;;;4861362;29;20516;-75
2023/11/12 04:34:18;;;;;;;4.57;3.80;;;5.30;99.90;;;;;;4872721;29;20458;-76
2023/11/12 04:36:44;;;;;;;5.93;3.70;;;5.40;99.90;;;;;;4852192;29;20276;-75
2023/11/12 04:39:10;;;;;;;5.60;4.33;;;5.30;99.90;;;;;;4893733;29;20180;-76
2023/11/12 04:41:35;;;;;;;6.20;4.47;;;5.10;99.90;;;;;;4895949;29;20432;-76
2023/11/12 04:44:01;;;;;;;5.93;4.47;;;4.90;99.90;;;;;;4878731;29;20433;-74
2023/11/12 04:46:27;;;;;;;3.97;3.10;;;4.70;99.90;;;;;;4887501;29;20464;-76
2023/11/12 04:48:53;;;;;;;7.93;4.17;;;4.70;99.90;;;;;;4872328;29;20200;-77
2023/11/12 04:51:19;;;;;;;11.33;4.03;;;4.60;99.90;;;;;;4894178;29;20483;-79
2023/11/12 04:53:45;;;;;;;4.33;3.37;;;4.40;99.90;;;;;;4889892;29;20279;-76
2023/11/12 04:56:11;;;;;;;7.73;4.10;;;4.50;99.90;;;;;;4874213;29;20729;-78
2023/11/12 04:58:38;;;;;;;3.90;3.50;;;4.40;99.90;;;;;;4892202;29;20432;-77
2023/11/12 05:01:04;;;;;;;4.60;3.00;;;4.30;99.90;;;;;;4860531;29;20487;-75
2023/11/12 05:03:33;;;;;;;4.40;3.57;;;4.20;99.90;;;;;;4871324;29;20489;-76
2023/11/12 05:05:59;;;;;;;5.97;3.50;;;4.10;99.90;;;;;;4862155;29;20243;-75
2023/11/12 05:08:25;;;;;;;5.23;3.73;;;4.20;99.90;;;;;;4870032;29;20500;-76
2023/11/12 05:10:51;;;;;;;7.00;4.13;;;4.00;99.90;;;;;;4883091;29;20484;-76
2023/11/12 05:13:16;;;;;;;5.70;3.80;;;4.20;99.90;;;;;;4851598;29;20436;-76
2023/11/12 05:15:42;;;;;;;6.30;4.13;;;4.00;99.90;;;;;;4864905;29;20211;-77
2023/11/12 05:18:08;;;;;;;5.57;4.43;;;4.10;99.90;;;;;;4872009;29;20239;-76
2023/11/12 05:20:34;;;;;;;6.20;4.53;;;4.00;99.90;;;;;;4857407;29;20239;-77
2023/11/12 05:23:01;;;;;;;7.23;5.23;;;4.00;99.90;;;;;;4858171;29;20191;-77
2023/11/12 05:25:27;;;;;;;9.67;5.90;;;3.90;99.90;;;;;;4866944;29;20233;-77
2023/11/12 05:27:52;;;;;;;5.90;5.07;;;4.00;99.90;;;;;;4868087;29;20477;-78
2023/11/12 05:30:18;;;;;;;8.23;5.27;;;4.00;99.90;;;;;;4870387;29;20655;-76
2023/11/12 05:32:43;;;;;;;6.90;5.40;;;4.00;99.90;;;;;;4874307;29;20192;-75
2023/11/12 05:35:09;;;;;;;6.30;4.83;;;3.90;99.90;;;;;;4859196;29;20208;-75
2023/11/12 05:37:35;;;;;;;6.20;4.60;;;3.90;99.90;;;;;;4865689;29;20278;-76
2023/11/12 05:40:00;;;;;;;5.50;5.00;;;3.80;99.90;;;;;;4865518;29;20184;-75
2023/11/12 05:42:26;;;;;;;7.30;5.40;;;3.70;99.90;;;;;;4866878;29;20236;-76
2023/11/12 05:44:52;;;;;;;5.60;4.40;;;3.70;99.90;;;;;;4874254;29;20228;-77
2023/11/12 05:47:17;;;;;;;7.00;4.53;;;3.60;99.90;;;;;;4850228;29;20239;-76
2023/11/12 05:49:43;;;;;;;6.10;4.47;;;3.70;99.90;;;;;;4881605;29;20428;-76
2023/11/12 05:52:09;;;;;;;5.30;4.03;;;3.60;99.90;;;;;;4883951;29;20477;-77
2023/11/12 05:54:35;;;;;;;7.00;5.47;;;3.70;99.90;;;;;;4853260;29;20517;-77
2023/11/12 05:57:01;;;;;;;6.87;4.80;;;3.80;99.90;;;;;;4878367;29;20421;-76
2023/11/12 05:59:26;;;;;;;6.20;4.43;;;3.70;99.90;;;;;;4860920;29;20206;-76
2023/11/12 06:01:52;;;;;;;6.90;4.80;;;3.70;99.90;;;;;;4880607;29;20606;-77
2023/11/12 06:04:18;;;;;;;5.43;4.70;;;3.70;99.90;;;;;;4871454;29;20208;-78
2023/11/12 06:06:44;;;;;;;5.63;4.43;;;3.60;99.90;;;;;;4849406;29;20314;-78
2023/11/12 06:09:10;;;;;;;5.87;4.73;;;3.60;99.90;;;;;;4880195;29;20939;-78
2023/11/12 06:11:39;;;;;;;5.57;5.03;;;3.50;99.90;;;;;;4855501;29;20544;-78
2023/11/12 06:14:04;;;;;;;6.17;5.40;;;3.60;99.90;;;;;;4856744;29;20286;-77
2023/11/12 06:16:30;;;;;;;7.07;5.10;;;3.70;99.90;;;;;;4849512;29;20483;-77
2023/11/12 06:18:56;;;;;;;7.60;5.50;;;3.50;99.90;;;;;;4867300;29;20548;-76
2023/11/12 06:21:23;;;;;;;5.57;4.73;;;3.60;99.90;;;;;;4875854;29;20222;-75
2023/11/12 06:23:49;;;;;;;5.80;4.83;;;3.50;99.90;;;;;;4858585;29;20420;-76
2023/11/12 06:26:15;;;;;;;6.23;5.20;;;3.60;99.90;;;;;;4894999;29;20467;-76
2023/11/12 06:28:41;;;;;;;7.97;5.40;;;3.50;99.90;;;;;;4865142;29;20192;-77
2023/11/12 06:31:07;;;;;;;6.17;5.13;;;3.50;99.90;;;;;;4880674;29;20448;-77
2023/11/12 06:33:32;;;;;;;5.53;4.90;;;3.40;99.90;;;;;;4859747;29;20202;-76
2023/11/12 06:35:58;;;;;;;5.93;4.93;;;3.30;99.90;;;;;;4867818;29;20208;-77
2023/11/12 06:38:23;;;;;;;7.20;5.53;;;3.40;99.90;;;;;;4862725;29;20188;-75
2023/11/12 06:40:49;;;;;;;5.90;4.57;;;3.40;99.90;;;;;;4866509;29;20216;-77
2023/11/12 06:43:15;;;;;;;7.03;5.27;;;3.40;99.90;;;;;;4881104;29;20192;-77
2023/11/12 06:45:41;;;;;;;7.13;4.47;;;3.40;99.90;;;;;;4892806;29;20222;-77
2023/11/12 06:48:08;;;;;;;5.63;4.60;;;3.30;99.90;;;;;;4880730;29;20428;-76
2023/11/12 06:50:34;;;;;;;5.60;5.03;;;3.20;99.90;;;;;;4877294;29;20464;-76
2023/11/12 06:52:59;;;;;;;4.80;4.07;;;3.20;99.90;;;;;;4851409;29;20188;-76
2023/11/12 06:55:25;;;;;;;7.83;5.00;;;3.30;99.90;;;;;;4858710;29;20540;-76
2023/11/12 06:57:51;;;;;;;5.70;4.60;;;3.10;99.90;;;;;;4848205;29;20200;-78
2023/11/12 07:00:17;;;;;;;7.83;4.20;;;3.30;99.90;;;;;;4843371;29;20191;-77
2023/11/12 07:02:43;;;;;;;6.50;4.80;;;3.30;99.90;;;;;;4866584;29;20462;-76
2023/11/12 07:05:10;;;;;;;6.83;5.07;;;3.30;99.90;;;;;;4881538;29;20472;-77
2023/11/12 07:07:38;;;;;;;6.77;4.90;;;3.30;99.90;;;;;;4885223;29;20427;-79
2023/11/12 07:10:05;;;;;;;5.67;5.03;;;3.30;99.90;;;;;;4864141;29;20578;-76
2023/11/12 07:12:31;;;;;;;13.53;6.33;;;3.40;99.90;;;;;;4868565;29;20438;-77
2023/11/12 07:14:57;;;;;;;7.70;5.53;;;3.40;99.90;;;;;;4842975;29;20436;-78
2023/11/12 07:17:23;;;;;;;6.90;5.67;;;3.30;99.90;;;;;;4883848;29;20580;-76
2023/11/12 07:19:48;;;;;;;6.50;5.40;;;3.50;99.90;;;;;;4870284;29;20188;-76
2023/11/12 07:22:14;;;;;;;9.23;6.33;;;3.40;99.90;;;;;;4881357;29;20211;-75
2023/11/12 07:24:40;;;;;;;12.00;8.17;;;3.40;99.90;;;;;;4851503;29;20243;-78
2023/11/12 07:27:05;;;;;;;8.80;6.30;;;3.40;99.90;;;;;;4865743;29;20192;-79
2023/11/12 07:29:31;;;;;;;8.87;6.30;;;3.60;99.90;;;;;;4855522;29;20256;-76
2023/11/12 07:31:57;;;;;;;7.70;6.10;;;3.60;99.90;;;;;;4890633;29;20277;-75
2023/11/12 07:34:23;;;;;;;13.23;6.30;;;3.70;99.90;;;;;;4878096;29;20184;-74
2023/11/12 07:36:49;;;;;;;7.83;6.10;;;3.60;99.90;;;;;;4867862;29;20413;-77
2023/11/12 07:39:14;;;;;;;7.57;5.73;;;3.60;99.90;;;;;;4869178;29;20224;-76
2023/11/12 07:41:40;;;;;;;10.60;7.10;;;3.80;99.90;;;;;;4883650;29;20200;-76
2023/11/12 07:44:06;;;;;;;10.50;7.20;;;3.70;99.90;;;;;;4851914;29;20192;-77
2023/11/12 07:46:32;;;;;;;10.10;6.43;;;3.80;99.90;;;;;;4883900;29;20457;-76
2023/11/12 07:48:58;;;;;;;8.07;7.00;;;3.70;99.90;;;;;;4851399;29;20266;-77
2023/11/12 07:51:24;;;;;;;9.07;6.97;;;3.90;99.90;;;;;;4845978;29;20227;-76
2023/11/12 07:53:51;;;;;;;9.60;7.40;;;3.90;99.90;;;;;;4852624;29;20485;-77
2023/11/12 07:56:16;;;;;;;6.83;6.00;;;3.90;99.90;;;;;;4875344;29;20544;-76
2023/11/12 07:58:42;;;;;;;9.30;7.13;;;3.90;99.90;;;;;;4882593;29;20418;-76
2023/11/12 08:01:11;;;;;;;12.37;7.17;;;4.10;99.90;;;;;;4866862;29;20212;-76
2023/11/12 08:03:36;;;;;;;11.50;6.50;;;4.10;99.90;;;;;;4859579;29;20440;-77
2023/11/12 08:06:03;;;;;;;8.77;6.10;;;4.20;99.90;;;;;;4885058;29;20478;-78
2023/11/12 08:08:29;;;;;;;9.50;6.37;;;4.30;99.90;;;;;;4853688;29;20441;-77
2023/11/12 08:11:00;;;;;;;9.83;7.13;;;4.40;99.90;;;;;;4860472;29;20473;-77
2023/11/12 08:13:26;;;;;;;7.57;6.73;;;4.30;99.90;;;;;;4866302;29;20436;-77
2023/11/12 08:15:52;;;;;;;10.03;7.33;;;4.30;99.90;;;;;;4875115;29;20464;-77
2023/11/12 08:18:19;;;;;;;7.90;6.47;;;4.40;99.90;;;;;;4880416;29;20454;-77
2023/11/12 08:20:45;;;;;;;8.63;6.07;;;4.40;99.90;;;;;;4876936;29;20454;-77
2023/11/12 08:23:11;;;;;;;7.17;6.00;;;4.50;99.90;;;;;;4866960;29;20428;-78
2023/11/12 08:25:38;;;;;;;8.30;7.00;;;4.50;99.90;;;;;;4854714;29;20196;-77
2023/11/12 08:28:05;;;;;;;10.17;7.70;;;4.80;99.90;;;;;;4873372;29;20240;-77
2023/11/12 08:30:31;;;;;;;10.73;6.93;;;4.80;99.90;;;;;;4865176;29;20809;-77
2023/11/12 08:32:58;;;;;;;7.73;6.10;;;4.70;99.90;;;;;;4855275;29;20434;-76
2023/11/12 08:35:26;;;;;;;10.60;8.33;;;4.80;99.90;;;;;;4883011;29;20443;-77
2023/11/12 08:37:52;;;;;;;9.53;7.30;;;4.80;99.90;;;;;;4871861;29;20465;-79
2023/11/12 08:40:17;;;;;;;9.37;7.30;;;4.90;99.90;;;;;;4838276;29;20461;-79
2023/11/12 08:42:43;;;;;;;11.27;6.93;;;5.00;99.90;;;;;;4853764;29;20197;-77
2023/11/12 08:45:09;;;;;;;12.23;6.40;;;5.00;99.90;;;;;;4868701;29;20242;-76
2023/11/12 08:47:37;;;;;;;7.60;5.70;;;5.20;99.90;;;;;;4869677;29;20427;-77
2023/11/12 08:50:03;;;;;;;7.73;6.50;;;5.10;99.90;;;;;;4866996;29;20235;-78
2023/11/12 08:52:28;;;;;;;11.37;6.17;;;5.20;99.90;;;;;;4876043;29;20531;-77
2023/11/12 08:54:55;;;;;;;9.97;6.30;;;5.30;99.90;;;;;;4866659;29;20231;-76
2023/11/12 08:57:21;;;;;;;12.20;7.10;;;5.30;99.90;;;;;;4874974;29;20421;-78
2023/11/12 08:59:53;;;;;;;9.73;7.00;;;5.40;99.90;;;;;;4893268;29;20413;-76
2023/11/12 09:02:19;;;;;;;7.60;5.93;;;5.40;99.90;;;;;;4874730;29;20413;-76
2023/11/12 09:04:45;;;;;;;7.17;5.97;;;5.50;99.90;;;;;;4865019;29;20500;-77
2023/11/12 09:07:13;;;;;;;8.40;6.80;;;5.50;99.90;;;;;;4873099;29;20447;-77
2023/11/12 09:09:38;;;;;;;7.87;7.00;;;5.70;99.90;;;;;;4834678;29;20191;-77
2023/11/12 09:12:05;;;;;;;11.20;7.50;;;5.80;99.90;;;;;;4887453;29;20462;-79
2023/11/12 09:14:32;;;;;;;10.70;6.00;;;5.60;99.90;;;;;;4835739;29;20216;-78
2023/11/12 09:17:00;;;;;;;7.83;6.47;;;5.70;99.90;;;;;;4844005;29;20439;-78
2023/11/12 09:19:28;;;;;;;6.40;5.07;;;5.70;99.90;;;;;;4846317;29;20522;-78
2023/11/12 09:21:53;;;;;;;9.27;6.23;;;5.70;99.90;;;;;;4831902;29;20429;-78
2023/11/12 09:24:19;;;;;;;8.13;6.13;;;5.70;99.90;;;;;;4844237;29;20430;-78
2023/11/12 09:26:46;;;;;;;8.30;5.83;;;5.80;99.90;;;;;;4813012;29;20194;-77
2023/11/12 09:29:12;;;;;;;8.40;6.13;;;5.90;99.90;;;;;;4829285;29;20426;-78
2023/11/12 09:31:40;;;;;;;5.97;5.37;;;5.80;99.90;;;;;;4831760;29;20514;-77
2023/11/12 09:34:07;;;;;;;7.53;6.07;;;6.00;99.90;;;;;;4863759;29;20399;-79
2023/11/12 09:36:34;;;;;;;6.30;5.70;;;6.10;99.90;;;;;;4829234;29;20451;-78
2023/11/12 09:39:00;;;;;;;6.30;4.63;;;6.20;99.90;;;;;;4829756;29;20432;-78
2023/11/12 09:41:28;;;;;;;9.00;5.30;;;6.10;99.90;;;;;;4811112;29;20478;-77
2023/11/12 09:43:58;;;;;;;5.80;5.07;;;6.10;99.90;;;;;;4811249;29;20431;-78
2023/11/12 09:46:24;;;;;;;7.90;5.70;;;6.20;99.90;;;;;;4828034;29;20533;-77
2023/11/12 09:48:55;;;;;;;7.10;5.50;;;6.30;99.90;;;;;;4844821;29;20455;-77
2023/11/12 09:51:24;;;;;;;6.93;4.93;;;6.20;99.90;;;;;;4861984;29;20465;-78
2023/11/12 09:53:52;;;;;;;10.90;6.87;;;6.50;99.90;;;;;;4865952;29;20412;-80
2023/11/12 09:56:24;;;;;;;7.97;5.63;;;6.60;99.90;;;;;;4847298;29;20458;-78
2023/11/12 09:58:50;;;;;;;6.20;5.10;;;6.70;99.90;;;;;;4881118;29;20405;-78
2023/11/12 10:01:15;;;;;;;7.00;5.10;;;7.00;99.90;;;;;;4866400;29;20434;-80
2023/11/12 10:03:47;;;;;;;6.20;4.80;;;7.00;99.90;;;;;;4865159;29;20441;-78
2023/11/12 10:06:16;;;;;;;4.80;4.40;;;7.20;99.90;;;;;;4865344;29;20229;-78
2023/11/12 10:08:43;;;;;;;6.57;4.50;;;7.20;99.90;;;;;;4885635;29;20482;-77
2023/11/12 10:11:28;;;;;;;8.13;5.20;;;7.40;99.90;;;;;;4854586;29;20479;-77
2023/11/12 10:13:57;;;;;;;5.90;4.30;;;7.40;99.90;;;;;;4893443;29;20444;-77
2023/11/12 10:16:29;;;;;;;9.57;5.50;;;7.50;99.90;;;;;;4901379;29;20444;-79
2023/11/12 10:19:14;;;;;;;4.97;4.37;;;7.60;99.90;;;;;;4886251;29;20546;-78
2023/11/12 10:21:53;;;;;;;6.00;4.43;;;7.60;99.90;;;;;;4852023;29;20436;-77
2023/11/12 10:24:19;;;;;;;7.50;4.83;;;7.70;99.90;;;;;;4881283;29;20440;-78
2023/11/12 10:26:45;;;;;;;4.73;3.67;;;7.70;99.90;;;;;;4885121;29;20452;-76
2023/11/12 10:29:22;;;;;;;9.10;4.63;;;7.70;99.90;;;;;;4876762;29;20447;-78
2023/11/12 10:31:48;;;;;;;6.40;5.00;;;7.90;99.90;;;;;;4869048;29;20212;-78
2023/11/12 10:34:16;;;;;;;9.73;5.37;;;7.90;99.90;;;;;;4852843;29;20429;-76
2023/11/12 10:37:03;;;;;;;6.10;4.20;;;7.90;99.90;;;;;;4870624;29;20435;-78
2023/11/12 10:39:47;;;;;;;6.83;4.50;;;8.00;99.90;;;;;;4886857;29;20456;-77
2023/11/12 10:42:26;;;;;;;6.10;4.50;;;8.10;99.90;;;;;;4861290;29;20457;-78
2023/11/12 10:44:57;;;;;;;7.57;4.80;;;8.10;99.90;;;;;;4880647;29;20470;-79
2023/11/12 10:47:29;;;;;;;7.20;4.80;;;8.10;99.90;;;;;;4868618;29;20417;-78
2023/11/12 10:49:55;;;;;;;4.87;4.27;;;8.10;99.90;;;;;;4885517;29;20425;-78
2023/11/12 10:52:23;;;;;;;4.10;3.70;;;8.20;99.90;;;;;;4883992;29;20469;-77
2023/11/12 10:54:57;;;;;;;5.17;3.90;;;8.30;99.90;;;;;;4867479;29;20443;-77
2023/11/12 10:57:24;;;;;;;6.30;4.30;;;8.30;99.90;;;;;;4851990;29;20583;-78
2023/11/12 10:59:53;;;;;;;6.40;4.50;;;8.30;99.90;;;;;;4876139;29;20717;-78
2023/11/12 11:02:21;;;;;;;6.03;3.63;;;8.30;99.90;;;;;;4867223;29;20443;-77
2023/11/12 11:04:48;;;;;;;5.30;4.20;;;8.20;99.90;;;;;;4867228;29;20472;-77
2023/11/12 11:07:16;;;;;;;7.60;4.20;;;8.20;99.90;;;;;;4853197;29;20453;-77
2023/11/12 11:09:43;;;;;;;5.10;4.30;;;8.20;99.90;;;;;;4861573;29;20441;-78
2023/11/12 11:12:13;;;;;;;6.67;4.10;;;8.20;99.90;;;;;;4896897;29;20469;-77
2023/11/12 11:14:39;;;;;;;5.83;4.60;;;8.30;99.90;;;;;;4855411;29;20457;-76
2023/11/12 11:17:06;;;;;;;5.40;4.90;;;8.30;99.90;;;;;;4883837;29;20421;-78
2023/11/12 11:19:51;;;;;;;5.93;4.17;;;8.40;99.90;;;;;;4884396;29;21004;-77
2023/11/12 11:22:29;;;;;;;5.33;3.93;;;8.50;99.90;;;;;;4868964;29;20448;-78
2023/11/12 11:24:56;;;;;;;6.50;5.80;;;8.80;99.90;;;;;;4884531;29;20475;-79
2023/11/12 11:27:25;;;;;;;4.13;3.07;;;9.00;99.90;;;;;;4854165;29;20500;-78
2023/11/12 11:30:12;;;;;;;7.40;4.70;;;9.20;99.90;;;;;;4866415;29;20429;-77
2023/11/12 11:32:55;;;;;;;5.80;4.00;;;9.50;99.90;;;;;;4878941;29;20453;-77
2023/11/12 11:35:24;;;;;;;4.67;4.20;;;9.60;99.90;;;;;;4863961;29;20441;-76
2023/11/12 11:38:14;;;;;;;5.63;3.63;;;9.70;99.90;;;;;;4872479;29;20461;-78
2023/11/12 11:40:42;;;;;;;6.77;4.70;;;9.80;99.90;;;;;;4868001;29;20441;-77
2023/11/12 11:43:23;;;;;;;5.73;4.63;;;9.80;99.90;;;;;;4844931;29;20488;-77
2023/11/12 11:46:12;;;;;;;7.83;3.73;;;9.50;99.90;;;;;;4859271;29;20479;-78
2023/11/12 11:49:01;;;;;;;5.47;4.70;;;9.50;99.90;;;;;;4895778;29;20484;-78
2023/11/12 11:51:28;;;;;;;5.60;3.57;;;9.50;99.90;;;;;;4900255;29;20457;-77
2023/11/12 11:54:00;;;;;;;6.53;4.40;;;9.50;99.90;;;;;;4870574;29;20496;-77
2023/11/12 11:56:29;;;;;;;9.70;4.40;;;9.70;99.90;;;;;;4895684;29;20256;-78
2023/11/12 11:58:55;;;;;;;4.43;3.30;;;9.80;99.90;;;;;;4867781;29;20536;-78
2023/11/12 12:01:21;;;;;;;4.50;3.30;;;10.00;99.90;;;;;;4872778;29;20424;-78
2023/11/12 12:03:47;;;;;;;5.60;3.40;;;10.40;99.90;;;;;;4867844;29;20432;-77
2023/11/12 12:06:23;;;;;;;3.90;3.33;;;10.60;99.90;;;;;;4868412;29;20467;-77
2023/11/12 12:08:53;;;;;;;5.30;3.50;;;10.80;99.90;;;;;;4852788;29;20480;-77
2023/11/12 12:11:22;;;;;;;3.30;3.00;;;10.90;99.90;;;;;;4886113;29;20451;-77
2023/11/12 12:14:01;;;;;;;4.87;3.97;;;11.00;99.90;;;;;;4868500;29;20422;-81
2023/11/12 12:16:28;;;;;;;5.20;3.47;;;11.10;99.90;;;;;;4851710;29;20472;-80
2023/11/12 12:18:54;;;;;;;3.60;3.20;;;11.00;99.90;;;;;;4873234;29;20433;-78
2023/11/12 12:21:20;;;;;;;3.70;3.00;;;11.10;99.90;;;;;;4867790;29;20439;-77
2023/11/12 12:23:47;;;;;;;3.97;3.23;;;11.10;99.90;;;;;;4866893;29;20419;-77
2023/11/12 12:26:24;;;;;;;3.30;3.00;;;11.10;99.90;;;;;;4852624;29;20468;-79
2023/11/12 12:28:52;;;;;;;3.87;2.90;;;11.00;99.90;;;;;;4871868;29;20450;-80
2023/11/12 12:31:18;;;;;;;6.07;2.70;;;10.90;99.90;;;;;;4864503;29;20471;-80
2023/11/12 12:34:01;;;;;;;5.87;3.30;;;10.90;99.90;;;;;;4884163;29;20474;-79
2023/11/12 12:36:28;;;;;;;6.73;3.13;;;10.90;99.90;;;;;;4853714;29;20467;-80
2023/11/12 12:38:58;;;;;;;3.53;2.30;;;11.00;99.90;;;;;;4859718;29;20458;-78
2023/11/12 12:41:25;;;;;;;5.23;2.60;;;11.00;99.90;;;;;;4885389;29;20434;-79
2023/11/12 12:43:54;;;;;;;5.33;2.40;;;11.10;99.90;;;;;;4870885;29;20456;-78
2023/11/12 12:46:21;;;;;;;4.10;2.30;;;11.20;99.90;;;;;;4872413;29;20429;-78
2023/11/12 12:48:55;;;;;;;4.17;2.90;;;11.20;99.90;;;;;;4858333;29;20417;-78
2023/11/12 12:51:23;;;;;;;4.73;2.40;;;11.00;99.90;;;;;;4900088;29;20455;-77
2023/11/12 12:53:50;;;;;;;4.67;3.13;;;10.80;99.90;;;;;;4884958;29;20420;-80
2023/11/12 12:56:19;;;;;;;3.77;2.50;;;10.60;99.90;;;;;;4843149;29;20490;-78